All City Stadium (Denver), Colorado
Current Conditions -  °F | °C
As of 12:53 AM on Saturday 25 Oct 2014 (Local Time) from KAPA Reporting Station
Clear Clear  
Wind Chill: 56°   Ceiling: Unl
Heat Index: 56°   Visibility: 10mi
Dew Point: 23°   Wind: 10mph
Humidity: 28%   Direction: 220°SW
Pressure: 30.23"   Gusts: NA
Location:  39.69109°N, 104.9663°W
Report Text: KAPA 250653Z 22009KT 10SM CLR 13/M05 A3023 RMK AO2 SLP179 T01331050 402610100
Loading
Personal Weather Stations






























Interactive Weather Map
Tropical Storm Tracking
New forecast layout! Learn more

10-Day Weather Forecast

Advertisements
Track Severe Weather on mobile